Airfield :
LOGIN :

Register | Disclaimer

   EN    FR    IT 

 










Legend :    VFR   Marginal VFR   IFR   Intensive IFR   Very Intensive IFR
Visi :
Ceiling :
>= 8 km
>= 3000ft
5 to 8 km
1000 to 3000 ft
1500m to 5 km
500 to 1000 ft
800 to 1500m
200 to 500 ft
< 800m
< 200 ft
Symbols :   Thunderstorms  Fog  Heavy snow  Heavy precipitations  Wind > 20 kt
SIGMETs :     Misc.  Thunderstorms  Icing  Turbulence  Mountain Waves  Volcanic Ashes






- Airport Elevation : 821 ft
- IATA code : LYS


LFLL - Lyon St Exupéry / Satolas

CURRENT METAR :
  • 242230Z AUTO 36009KT CAVOK 15/08 Q1029 NOSIG

EXPIRED METARs :
  • 242200Z AUTO 36006KT CAVOK 15/08 Q1029 NOSIG
  • 242130Z AUTO 36009KT CAVOK 16/08 Q1030 NOSIG
  • 242100Z AUTO 36008KT CAVOK 16/08 Q1030 NOSIG
  • 242030Z AUTO 36007KT CAVOK 16/08 Q1030 NOSIG
  • 242000Z AUTO 01007KT CAVOK 16/08 Q1029 NOSIG

TAF TAF LFLL
Valid from the 24 at 18:00 until the 26 at 00:00 UTC


241700Z 2418/2524 36012KT CAVOK
TEMPO 2418/2419 36015G25KT
BECMG 2501/2503 VRB03KT
BECMG 2509/2511 36010KT
TEMPO 2515/2518 36015G28KT



MET'MAP, your aeronautical weather chart ! - Copyright ORBIFLY December 2007 - Disclaimer

ORBIFLY MET'MAP TEAM :

Programming & Development : Alexandra Zaïnal
Concept & original design : Baudouin d'Aumeries
Assistance for programming : Marc-Olivier Méhu
Technical & hardware support : Manuel Goepfert

Contact : metmap@orbifly.com




SOURCES & CREDITS :

   NOAA